Share

De Witt, NE (68341)

2 Miles East of Plymouth (KNEPLYMO4) Elev 1394 ft | 40.31 °N, 96.96 °W | Change Station

Current weather conditions updated 1 second ago

Clear
Clear
52.6 °F
Feels Like 52.6 °F
N
10.0
Wind Variable Wind from SSE
Gusts 14.0 mph
Sunrise 6:43 AM
Sunset 8:10 PM
Moon Waning Gibbous

Today is forecast to be Much Warmer than yesterday. Chance of showers tonight.

Pressure 30.06 in
Visibility 10.0 miles
Clouds Clear
Dew Point 41 °F
Humidity 64%
Rainfall 0.00 in
Snow Depth Not available.
UV 0.0 out of 16
Pollen 11.00 out of 12
Air Quality Not available.
Flu Activity Sporadic
METAR KBIE 190755Z AUTO 15012KT 10SM CLR 12/04 A3006 RMK AO2 T01200040

More Conditions Fewer Conditions

Pressure 30.06 in
Visibility 10.0 miles
Clouds Clear
Dew Point 41 °F
Humidity 64%
Rainfall 0.00 in
Snow Depth Not available.
UV 0.0 out of 16
Pollen 11.00 out of 12
Air Quality Not available.
Flu Activity Sporadic
METAR KBIE 190755Z AUTO 15012KT 10SM CLR 12/04 A3006 RMK AO2 T01200040

More Conditions Fewer Conditions

10-Day Weather Forecast

Almanac

Astronomy

Apr. 19, 2014 Rise Set
Actual Time 6:43 AM CDT 8:10 PM CDT
Civil Twilight 6:14 AM CDT 8:39 PM CDT
Nautical Twilight 5:40 AM CDT 9:13 PM CDT
Astronomical Twilight 5:04 AM CDT 9:50 PM CDT
Moon No Moon Rise 10:02 AM CDT
Length of Visible Light 14h 24m
Length of Day
13h 27m
Tomorrow will be 2m 30s longer.
Waning Gibbous, 82% of the Moon is Illuminated
Today
Waning Gibbous
Apr 22
Last Quarter
Apr 29
New
May 6
First Quarter
May 14
Full

Today's Extremes

State Highs State Lows

Community

  • Sunset Silhouettes
    Sunset Silhouettes
  • FL sunset Perico Isle
    FL sunset Perico Isle
  • Cloudy spring view
    Cloudy spring view
  • Old barn
    Old barn
  • What's for Lunch?
    What's for Lunch?

WunderPhotos

Upload Photos

1,702,670 photos uploaded!

WunderBlogs® & News

Nearby

Snow Depth

Station Depth Elevation
No new snow has been reported.

Coastal Water Temperatures

Place Temperature
No Stations Reporting

Earthquake Activity

City Distance Mag. Time & Date
No recent earthquake activity has been reported nearby.
Minimum magnitude displayed is 2.5.

Nearby Weather Stations

Station Location Temp. Dew Point Humidity Wind Precip. Elev Updated Type
2 Miles East of Plymouth, Plymouth, NE 52.6 °F 41 °F 64% SSE  at  10.0 mph 0.00 in / hr 1394 ft 3:03 AM CDT Rapid Fire
MesoWest FAIRB2 , Fairbury, NE 57 °F - - North  at  - 0.00 in / hr 1321 ft 2:00 AM CDT MADIS
3 Miles East of Friend, Friend, NE 53.2 °F 40 °F 62% SSE  at  15.5 mph 0.00 in / hr 1531 ft 3:03 AM CDT Rapid Fire
Crystal Springs Campground, Fairbury, NE 53.8 °F 43 °F 66% SSE  at  5.0 mph 0.00 in / hr 1424 ft 3:03 AM CDT Rapid Fire

Show More Stations Show Fewer Stations

What do you think?

We're not finished. Please let us know what you like, what you don't like, and what you are still missing.